Time;durP1;ratioP1;P1;durP2;ratioP2;P2;SDS_P1;SDS_P2;PMS_P1;PMS_P2;Temp;Humidity;BMP_temperature;BMP_pressure;BME280_temperature;BME280_humidity;BME280_pressure;Samples;Min_cycle;Max_cycle;Signal;HPM_P1;HPM_P2
2021/10/28 00:14:00;;;;;;;22.32;13.18;;;;;;;10.53;73.18;101434.66;1754841;81;21015;-81
2021/10/28 00:16:29;;;;;;;21.30;12.43;;;;;;;10.43;73.26;101428.52;1768585;81;21041;-80
2021/10/28 00:19:00;;;;;;;17.77;12.15;;;;;;;10.32;73.29;101431.83;1768797;81;21178;-80
2021/10/28 00:21:38;;;;;;;17.00;11.85;;;;;;;10.22;73.39;101438.51;1768673;81;21002;-80
2021/10/28 00:24:08;;;;;;;20.25;13.58;;;;;;;10.12;73.44;101441.65;1768621;81;21041;-80
2021/10/28 00:26:35;;;;;;;19.25;13.80;;;;;;;9.99;73.53;101430.44;1768736;81;21128;-80
2021/10/28 00:29:05;;;;;;;22.77;13.80;;;;;;;9.86;73.62;101431.19;1768994;81;21081;-80
2021/10/28 00:31:35;;;;;;;20.15;13.28;;;;;;;9.76;73.72;101433.02;1768931;81;21546;-80
2021/10/28 00:34:03;;;;;;;20.50;13.75;;;;;;;9.67;73.78;101433.86;1769041;81;21506;-80
2021/10/28 00:36:29;;;;;;;21.12;14.85;;;;;;;9.60;73.91;101435.39;1754100;81;21486;-80
2021/10/28 00:38:56;;;;;;;22.45;14.50;;;;;;;9.54;73.99;101433.63;1766897;81;21054;-80
2021/10/28 00:41:22;;;;;;;19.92;14.20;;;;;;;9.47;74.08;101433.81;1770261;81;21146;-80
2021/10/28 00:43:51;;;;;;;22.52;14.65;;;;;;;9.37;74.14;101426.79;1770211;81;21053;-80
2021/10/28 00:46:18;;;;;;;25.62;16.17;;;;;;;9.31;74.26;101433.52;1770072;81;21014;-80
2021/10/28 00:48:45;;;;;;;23.18;16.17;;;;;;;9.21;74.34;101429.99;1724466;81;21070;-81
2021/10/28 00:51:12;;;;;;;21.75;14.38;;;;;;;9.11;74.44;101427.80;1739240;82;21080;-81
2021/10/28 00:53:38;;;;;;;22.98;16.77;;;;;;;9.04;74.54;101433.30;1739468;82;21113;-81
2021/10/28 00:56:05;;;;;;;28.95;18.45;;;;;;;8.99;74.62;101436.84;1738967;82;21007;-82
2021/10/28 00:58:32;;;;;;;25.27;17.37;;;;;;;8.96;74.72;101433.13;1739153;82;21295;-81
2021/10/28 01:01:04;;;;;;;34.03;17.70;;;;;;;8.92;74.80;101432.55;1739064;82;21101;-82
2021/10/28 01:03:30;;;;;;;29.98;17.85;;;;;;;8.88;74.90;101426.29;1738802;82;21126;-81
2021/10/28 01:05:56;;;;;;;27.30;17.70;;;;;;;8.84;74.98;101428.86;1737266;82;21256;-81
2021/10/28 01:08:23;;;;;;;26.00;16.67;;;;;;;8.79;75.06;101427.10;1698714;83;21007;-81
2021/10/28 01:10:50;;;;;;;25.57;16.85;;;;;;;8.72;75.16;101427.28;1737205;81;21636;-81
2021/10/28 01:13:18;;;;;;;29.80;17.52;;;;;;;8.68;75.28;101424.52;1762186;81;21002;-81
2021/10/28 01:15:44;;;;;;;48.92;28.40;;;;;;;8.64;75.34;101425.76;1695834;84;21570;-81
2021/10/28 01:18:12;;;;;;;83.65;46.88;;;;;;;8.57;75.43;101424.60;1710685;83;21089;-81
2021/10/28 01:20:39;;;;;;;51.23;34.30;;;;;;;8.51;75.51;101424.14;1710710;83;20994;-80
2021/10/28 01:23:06;;;;;;;37.33;23.98;;;;;;;8.47;75.61;101422.75;1710461;83;21586;-80
2021/10/28 01:25:32;;;;;;;27.93;19.48;;;;;;;8.43;75.70;101425.30;1710501;83;21016;-80
2021/10/28 01:28:00;;;;;;;26.55;19.45;;;;;;;8.39;75.76;101427.87;1721230;83;21133;-80
2021/10/28 01:30:26;;;;;;;33.35;20.52;;;;;;;8.33;75.86;101421.75;1721528;83;21150;-80
2021/10/28 01:32:52;;;;;;;32.63;22.90;;;;;;;8.30;75.94;101421.17;1721107;83;21530;-80
2021/10/28 01:35:19;;;;;;;29.95;20.05;;;;;;;8.27;76.01;101411.59;1720681;83;21027;-80
2021/10/28 01:37:45;;;;;;;30.37;19.40;;;;;;;8.25;76.10;101418.86;1721084;83;21476;-80
2021/10/28 01:40:11;;;;;;;31.65;19.50;;;;;;;8.22;76.18;101416.47;1721144;83;21058;-80
2021/10/28 01:42:39;;;;;;;31.75;18.77;;;;;;;8.21;76.25;101416.10;1721183;83;21061;-80
2021/10/28 01:45:06;;;;;;;28.75;18.80;;;;;;;8.18;76.34;101423.01;1721142;83;21067;-80
2021/10/28 01:47:32;;;;;;;30.88;20.68;;;;;;;8.15;76.42;101420.61;1722992;81;21491;-80
2021/10/28 01:49:59;;;;;;;31.07;21.05;;;;;;;8.15;76.49;101420.61;1757106;81;21050;-80
2021/10/28 01:52:25;;;;;;;30.10;19.15;;;;;;;8.14;76.56;101415.41;1757235;81;21030;-80
2021/10/28 01:54:51;;;;;;;34.60;20.95;;;;;;;8.11;76.60;101418.34;1757632;81;21555;-80
2021/10/28 01:57:21;;;;;;;34.25;21.68;;;;;;;8.06;76.72;101420.55;1757430;81;21444;-80
2021/10/28 01:59:49;;;;;;;30.50;19.65;;;;;;;8.03;76.79;101424.28;1757066;81;21370;-79
2021/10/28 02:02:15;;;;;;;43.70;24.75;;;;;;;7.99;76.84;101413.08;1757542;81;20996;-80
2021/10/28 02:04:42;;;;;;;42.98;24.23;;;;;;;7.96;76.91;101416.47;1757168;81;21007;-80
2021/10/28 02:07:08;;;;;;;38.95;23.42;;;;;;;7.93;76.95;101415.41;1756968;80;21130;-80
2021/10/28 02:09:34;;;;;;;42.20;24.23;;;;;;;7.86;77.01;101410.25;1757091;81;21475;-79
2021/10/28 02:12:00;;;;;;;44.80;24.12;;;;;;;7.82;77.09;101410.14;1757349;81;21058;-79
2021/10/28 02:14:28;;;;;;;45.92;24.35;;;;;;;7.80;77.19;101413.42;1757340;81;21058;-79
2021/10/28 02:16:54;;;;;;;41.08;24.92;;;;;;;7.79;77.23;101413.05;1757726;81;21804;-79
2021/10/28 02:19:20;;;;;;;45.30;24.85;;;;;;;7.76;77.28;101406.67;1757378;81;21864;-79
2021/10/28 02:21:46;;;;;;;42.58;23.67;;;;;;;7.73;77.35;101402.95;1757235;81;21070;-80
2021/10/28 02:24:12;;;;;;;41.53;23.98;;;;;;;7.69;77.41;101406.34;1757100;81;21567;-80
2021/10/28 02:26:38;;;;;;;46.30;24.55;;;;;;;7.67;77.50;101410.92;1757189;81;21034;-80
2021/10/28 02:29:05;;;;;;;38.40;23.18;;;;;;;7.63;77.56;101406.86;1757390;81;21027;-79
2021/10/28 02:31:35;;;;;;;42.62;23.32;;;;;;;7.58;77.58;101413.02;1757392;81;21153;-80
2021/10/28 02:34:01;;;;;;;42.40;25.90;;;;;;;7.52;77.64;101410.39;1757560;81;20991;-80
2021/10/28 02:36:27;;;;;;;40.88;24.23;;;;;;;7.46;77.71;101410.02;1757408;81;21043;-79
2021/10/28 02:38:53;;;;;;;43.05;25.95;;;;;;;7.42;77.78;101417.39;1757365;81;20989;-79
2021/10/28 02:41:19;;;;;;;45.12;26.90;;;;;;;7.39;77.83;101421.62;1757449;81;21550;-79
2021/10/28 02:43:45;;;;;;;47.43;28.10;;;;;;;7.35;77.87;101414.06;1757164;81;21897;-79
2021/10/28 02:46:11;;;;;;;46.73;28.85;;;;;;;7.26;77.94;101418.28;1757175;81;21081;-79
2021/10/28 02:48:37;;;;;;;44.98;27.48;;;;;;;7.21;78.00;101416.50;1756939;81;21023;-80
2021/10/28 02:51:03;;;;;;;48.40;25.40;;;;;;;7.15;78.05;101420.95;1756915;81;21034;-80
2021/10/28 02:53:30;;;;;;;51.35;29.82;;;;;;;7.09;78.12;101429.41;1756939;81;21523;-80
2021/10/28 02:55:56;;;;;;;75.15;34.63;;;;;;;7.04;78.17;101423.61;1756764;81;20970;-80
2021/10/28 02:58:22;;;;;;;89.10;44.77;;;;;;;7.00;78.24;101423.52;1756881;81;20979;-80
2021/10/28 03:00:48;;;;;;;46.28;27.55;;;;;;;6.96;78.27;101429.55;1756747;81;21018;-80
2021/10/28 03:03:14;;;;;;;39.92;25.70;;;;;;;6.95;78.33;101427.01;1756737;81;21133;-80
2021/10/28 03:05:40;;;;;;;38.28;23.95;;;;;;;6.92;78.37;101431.23;1756816;81;21073;-80
2021/10/28 03:08:07;;;;;;;44.80;25.97;;;;;;;6.89;78.42;101431.00;1762337;81;21161;-80
2021/10/28 03:10:33;;;;;;;44.93;25.52;;;;;;;6.86;78.45;101429.07;1764816;81;21046;-80
2021/10/28 03:12:59;;;;;;;43.40;24.40;;;;;;;6.83;78.49;101430.61;1764774;81;21053;-80
2021/10/28 03:15:33;;;;;;;39.33;23.77;;;;;;;6.82;78.52;101430.27;1765005;81;20994;-79
2021/10/28 03:26:07;;;;;;;40.05;25.30;;;;;;;6.73;78.75;101432.30;1763670;80;20999;-79
2021/10/28 03:28:33;;;;;;;42.75;25.12;;;;;;;6.71;78.81;101430.27;1789476;80;21079;-79
2021/10/28 03:31:00;;;;;;;42.08;25.08;;;;;;;6.67;78.88;101440.73;1778294;80;21474;-80
2021/10/28 03:33:26;;;;;;;38.02;24.95;;;;;;;6.61;78.95;101438.58;1761294;81;22477;-80
2021/10/28 03:35:52;;;;;;;38.90;24.70;;;;;;;6.57;78.99;101441.09;1760281;80;21063;-80
2021/10/28 03:38:25;;;;;;;37.03;24.15;;;;;;;6.54;79.03;101443.51;1778379;80;21029;-79
2021/10/28 03:56:53;;;;;;;45.12;27.15;;;;;;;6.48;79.35;101452.76;1734982;82;21054;-80
2021/10/28 04:31:06;;;;;;;58.45;33.88;;;;;;;6.05;80.02;101453.50;1743348;81;21066;-79
2021/10/28 04:33:34;;;;;;;58.58;34.35;;;;;;;5.99;80.07;101452.14;1743378;82;21085;-79
2021/10/28 04:36:00;;;;;;;56.90;32.53;;;;;;;5.94;80.10;101449.86;1756793;80;21017;-79
2021/10/28 04:38:26;;;;;;;46.98;28.12;;;;;;;5.94;80.13;101449.01;1773518;80;21126;-79
2021/10/28 04:40:52;;;;;;;41.08;26.60;;;;;;;5.93;80.15;101446.84;1773926;80;21636;-79
2021/10/28 04:43:18;;;;;;;46.63;28.40;;;;;;;5.94;80.17;101441.06;1773843;80;21057;-79
2021/10/28 04:45:44;;;;;;;47.10;27.77;;;;;;;5.95;80.19;101446.70;1774042;80;21057;-79
2021/10/28 04:48:11;;;;;;;45.63;28.32;;;;;;;5.95;80.21;101445.38;1773241;80;21069;-79
2021/10/28 04:50:37;;;;;;;54.05;30.30;;;;;;;5.96;80.24;101441.78;1772293;81;21116;-79
2021/10/28 04:53:03;;;;;;;45.65;28.42;;;;;;;5.97;80.28;101442.16;1741121;82;21516;-79
2021/10/28 04:55:29;;;;;;;47.75;28.15;;;;;;;5.98;80.29;101443.85;1801881;79;21034;-79
2021/10/28 04:57:55;;;;;;;45.88;27.45;;;;;;;5.97;80.33;101443.00;1801557;79;21616;-79
2021/10/28 05:00:21;;;;;;;52.38;29.90;;;;;;;5.97;80.35;101444.33;1802018;79;20998;-79
2021/10/28 05:02:49;;;;;;;45.25;28.50;;;;;;;5.98;80.38;101445.17;1801908;79;21921;-79
2021/10/28 05:05:15;;;;;;;46.35;28.02;;;;;;;5.98;80.43;101445.17;1772192;81;21518;-79
2021/10/28 05:07:41;;;;;;;50.60;29.37;;;;;;;5.99;80.49;101442.87;1758208;81;21015;-79
2021/10/28 05:10:08;;;;;;;48.83;28.87;;;;;;;5.97;80.50;101442.16;1746308;82;21019;-79
2021/10/28 05:12:34;;;;;;;47.48;29.52;;;;;;;5.96;80.56;101438.66;1746626;82;21558;-79
2021/10/28 05:15:00;;;;;;;48.10;29.95;;;;;;;5.94;80.58;101441.06;1746546;82;21071;-79
2021/10/28 05:17:26;;;;;;;52.08;31.07;;;;;;;5.92;80.62;101443.81;1753746;81;21070;-79
2021/10/28 05:19:52;;;;;;;61.15;33.48;;;;;;;5.92;80.67;101442.96;1762375;81;21007;-79
2021/10/28 05:22:19;;;;;;;57.85;32.93;;;;;;;5.91;80.71;101437.33;1756835;81;21015;-80
2021/10/28 05:24:45;;;;;;;75.45;41.33;;;;;;;5.88;80.77;101441.50;1762240;81;21467;-80
2021/10/28 05:27:11;;;;;;;52.65;31.42;;;;;;;5.84;80.81;101437.38;1756517;81;21838;-80
2021/10/28 05:29:37;;;;;;;54.73;31.35;;;;;;;5.81;80.85;101440.23;1756772;81;20996;-80
2021/10/28 05:32:04;;;;;;;55.08;30.17;;;;;;;5.77;80.88;101447.55;1756730;81;21050;-80
2021/10/28 05:37:16;;;;;;;49.38;30.45;;;;;;;5.74;80.95;101450.91;1820222;78;23321;-78
2021/10/28 05:39:42;;;;;;;49.08;28.95;;;;;;;5.66;80.96;101451.97;1790324;80;21467;-80
2021/10/28 05:42:09;;;;;;;46.92;28.12;;;;;;;5.66;80.98;101450.65;1790542;80;21635;-80
2021/10/28 05:44:35;;;;;;;49.13;29.18;;;;;;;5.66;81.01;101454.63;1785132;79;20955;-80
2021/10/28 05:47:01;;;;;;;51.50;30.37;;;;;;;5.65;81.02;101443.19;1784308;80;20994;-80
2021/10/28 05:49:30;;;;;;;49.00;30.55;;;;;;;5.69;81.05;101441.16;1788786;80;21012;-79
2021/10/28 05:51:55;;;;;;;44.85;28.27;;;;;;;5.73;81.07;101446.13;1788848;80;20975;-80
2021/10/28 05:54:21;;;;;;;49.40;29.48;;;;;;;5.77;81.10;101445.41;1788567;80;21064;-80
2021/10/28 05:56:47;;;;;;;50.63;29.70;;;;;;;5.81;81.13;101456.11;1788636;80;21017;-80
2021/10/28 05:59:14;;;;;;;49.03;28.25;;;;;;;5.82;81.14;101444.10;1782061;80;21432;-80
2021/10/28 06:01:40;;;;;;;44.98;28.75;;;;;;;5.86;81.20;101441.62;1768073;80;21025;-79
2021/10/28 06:04:06;;;;;;;51.02;30.32;;;;;;;5.86;81.19;101446.08;1764530;80;21513;-79
2021/10/28 06:06:33;;;;;;;53.10;29.05;;;;;;;5.87;81.23;101442.48;1757699;80;21786;-79
2021/10/28 06:08:59;;;;;;;50.33;29.63;;;;;;;5.90;81.28;101441.77;1757466;81;21022;-79
2021/10/28 06:11:25;;;;;;;52.03;31.62;;;;;;;5.91;81.29;101445.27;1757714;80;20895;-80
2021/10/28 06:13:52;;;;;;;59.30;32.73;;;;;;;5.95;81.34;101440.08;1757603;81;20962;-80
2021/10/28 06:16:18;;;;;;;60.50;36.20;;;;;;;6.02;81.37;101443.96;1757344;81;21054;-79
2021/10/28 06:18:46;;;;;;;56.98;32.73;;;;;;;6.06;81.42;101449.39;1757564;81;21152;-80
2021/10/28 06:21:13;;;;;;;60.15;32.15;;;;;;;6.18;81.44;101456.91;1757508;81;21002;-80
2021/10/28 06:23:39;;;;;;;59.23;34.23;;;;;;;6.42;81.40;101454.56;1757418;80;21026;-79
2021/10/28 06:26:05;;;;;;;74.55;46.18;;;;;;;6.57;81.27;101455.67;1757127;81;21045;-79
2021/10/28 06:28:31;;;;;;;84.10;52.33;;;;;;;6.62;81.30;101453.49;1757314;81;21032;-79
2021/10/28 06:30:58;;;;;;;78.52;47.50;;;;;;;6.63;81.33;101455.19;1757998;81;21053;-80
2021/10/28 06:33:27;;;;;;;61.88;37.10;;;;;;;6.75;81.42;101456.91;1757321;81;20978;-79
2021/10/28 06:35:52;;;;;;;58.45;33.65;;;;;;;6.84;81.47;101448.22;1754805;81;21517;-79
2021/10/28 06:38:18;;;;;;;53.05;32.80;;;;;;;6.86;81.51;101446.30;1749386;82;21511;-79
2021/10/28 06:40:44;;;;;;;49.73;32.38;;;;;;;6.94;81.60;101445.20;1765861;79;21681;-79
2021/10/28 06:43:10;;;;;;;46.13;29.67;;;;;;;7.05;81.62;101443.87;1813038;78;21147;-79
2021/10/28 06:45:36;;;;;;;47.55;28.70;;;;;;;7.24;81.64;101441.94;1809760;79;21077;-79
2021/10/28 06:48:03;;;;;;;49.05;29.02;;;;;;;7.46;81.62;101443.20;1777475;79;20995;-79
2021/10/28 06:50:34;;;;;;;46.98;30.75;;;;;;;7.67;81.61;101437.98;1759008;79;20987;-79
2021/10/28 06:53:05;;;;;;;50.98;31.05;;;;;;;7.87;81.59;101434.52;1768420;80;21539;-79
2021/10/28 06:55:43;;;;;;;44.90;28.20;;;;;;;8.06;81.56;101438.63;1747497;81;21178;-78
2021/10/28 07:03:33;;;;;;;44.98;28.20;;;;;;;8.61;81.50;101437.99;1778147;78;21043;-77
2021/10/28 07:06:10;;;;;;;44.10;27.67;;;;;;;8.70;81.41;101439.84;1770260;80;21001;-78
2021/10/28 07:08:32;;;;;;;37.05;25.17;;;;;;;8.77;81.37;101437.86;1769269;78;21108;-78
2021/10/28 07:10:59;;;;;;;49.08;30.08;;;;;;;8.83;81.31;101433.84;1763855;80;21061;-78
2021/10/28 07:13:30;;;;;;;38.75;27.82;;;;;;;8.92;81.26;101442.34;1768717;80;21049;-78
2021/10/28 07:15:58;;;;;;;40.78;24.57;;;;;;;8.99;81.22;101440.83;1765843;79;21016;-78
2021/10/28 07:18:41;;;;;;;42.03;25.97;;;;;;;9.03;81.13;101436.93;1714068;82;21023;-78
2021/10/28 07:26:31;;;;;;;41.18;26.27;;;;;;;9.25;80.84;101436.73;1780159;80;21000;-78
2021/10/28 07:38:14;;;;;;;37.00;23.95;;;;;;;9.57;80.45;101438.34;1691151;81;21003;-79
2021/10/28 08:14:18;;;;;;;34.03;21.87;;;;;;;10.56;78.79;101427.34;1689928;84;21199;-78
2021/10/28 08:19:28;;;;;;;32.30;22.02;;;;;;;10.62;78.48;101420.12;1687038;84;21103;-80
2021/10/28 08:21:54;;;;;;;31.55;21.80;;;;;;;10.70;78.33;101417.55;1682274;84;21033;-79
2021/10/28 08:24:33;;;;;;;33.85;21.75;;;;;;;10.79;78.18;101415.35;1695682;84;21664;-79
2021/10/28 08:29:33;;;;;;;33.25;21.68;;;;;;;10.91;77.86;101416.83;1689135;82;21667;-79
2021/10/28 08:31:58;;;;;;;32.50;21.33;;;;;;;10.95;77.72;101407.55;1692124;84;21082;-80
2021/10/28 08:34:33;;;;;;;38.28;22.70;;;;;;;10.95;77.56;101400.88;1698792;84;21030;-79
2021/10/28 08:37:05;;;;;;;35.17;22.05;;;;;;;10.97;77.43;101404.25;1697938;82;21040;-80
2021/10/28 08:39:26;;;;;;;35.23;22.80;;;;;;;11.03;77.31;101398.31;1706902;82;21170;-79
2021/10/28 08:41:52;;;;;;;37.73;23.98;;;;;;;11.15;77.18;101397.14;1709475;82;21008;-79
2021/10/28 08:44:21;;;;;;;35.00;22.73;;;;;;;11.22;77.06;101390.21;1704075;82;21570;-79
2021/10/28 08:46:49;;;;;;;36.88;22.67;;;;;;;11.30;76.94;101396.11;1703501;82;21063;-80
2021/10/28 08:49:23;;;;;;;38.92;22.37;;;;;;;11.38;76.82;101389.53;1706745;82;21503;-80
2021/10/28 09:19:34;;;;;;;32.65;21.42;;;;;;;11.91;75.97;101378.39;1702403;82;21104;-80
2021/10/28 09:19:45;;;;;;;;;;;;;;;12.29;75.15;101373.65;1716341;81;21159;-80
2021/10/28 09:24:47;;;;;;;25.77;18.45;;;;;;;12.38;74.76;101368.21;1707848;82;21571;-79
2021/10/28 09:27:16;;;;;;;31.52;20.65;;;;;;;12.50;74.61;101364.25;1730821;82;21025;-78
2021/10/28 09:30:00;;;;;;;31.45;21.40;;;;;;;12.55;74.38;101366.95;1707032;82;21060;-78
2021/10/28 09:32:40;;;;;;;25.68;18.60;;;;;;;12.58;74.23;101362.63;1704621;82;21142;-78
2021/10/28 09:51:14;;;;;;;24.63;18.10;;;;;;;13.03;72.97;101366.67;1719587;80;21105;-78
2021/10/28 09:59:31;;;;;;;26.30;18.42;;;;;;;13.30;72.45;101354.89;1770779;80;21933;-78
2021/10/28 10:02:10;;;;;;;24.12;16.70;;;;;;;13.35;72.19;101354.41;1773050;80;21060;-78
2021/10/28 10:04:28;;;;;;;24.37;16.52;;;;;;;13.43;72.04;101351.25;1762645;80;21026;-77
2021/10/28 10:06:53;;;;;;;33.50;19.48;;;;;;;13.43;71.83;101351.25;1705796;83;21042;-78
2021/10/28 10:09:20;;;;;;;31.35;20.30;;;;;;;13.54;71.70;101355.95;1721540;82;21118;-78
2021/10/28 10:11:48;;;;;;;29.95;18.15;;;;;;;13.59;71.51;101346.89;1712952;82;21132;-77
2021/10/28 10:14:15;;;;;;;28.37;17.97;;;;;;;13.64;71.32;101348.59;1714550;82;21088;-78
2021/10/28 10:16:42;;;;;;;25.37;16.40;;;;;;;13.70;71.16;101347.41;1717640;82;21062;-78
2021/10/28 10:19:12;;;;;;;25.25;16.90;;;;;;;13.77;71.03;101348.92;1720123;82;21590;-78
2021/10/28 10:21:41;;;;;;;23.98;16.15;;;;;;;13.81;70.88;101347.09;1759699;80;21065;-77
2021/10/28 12:47:17;;;;;;;24.52;14.73;;;;;;;15.89;63.37;101199.48;1791743;79;21050;-77
2021/10/28 13:51:39;;;;;;;42.98;22.75;;;;;;;16.03;60.65;101148.87;1703669;83;22322;-78
2021/10/28 13:54:21;;;;;;;30.82;14.93;;;;;;;16.03;60.59;101144.00;1720158;83;21030;-78
2021/10/28 14:16:24;;;;;;;13.78;8.98;;;;;;;15.88;60.60;101134.59;1709009;81;21555;-77
2021/10/28 14:21:14;;;;;;;75.32;33.75;;;;;;;15.82;60.53;101127.27;1728643;81;21082;-78
2021/10/28 14:23:42;;;;;;;37.15;17.02;;;;;;;15.80;60.47;101129.29;1740732;81;21480;-78
2021/10/28 15:28:15;;;;;;;58.08;28.95;;;;;;;13.64;61.90;101101.49;1748398;82;21086;-79
2021/10/28 15:33:56;;;;;;;40.03;20.17;;;;;;;13.40;62.16;101102.41;1748572;82;20979;-80
2021/10/28 15:38:39;;;;;;;107.70;47.43;;;;;;;13.16;62.45;101090.36;1748534;81;21825;-79
2021/10/28 15:55:16;;;;;;;913.45;629.90;;;;;;;12.60;63.38;101080.98;1748387;82;20967;-79
2021/10/28 15:57:25;;;;;;;329.25;205.00;;;;;;;12.51;63.53;101074.31;1751661;80;21030;-78
2021/10/28 16:24:28;;;;;;;125.47;68.10;;;;;;;11.32;65.31;101067.87;1748816;82;21531;-79
2021/10/28 16:26:54;;;;;;;84.42;46.30;;;;;;;11.25;65.46;101066.83;1748272;80;21475;-79
2021/10/28 16:29:21;;;;;;;121.77;59.90;;;;;;;11.16;65.63;101057.56;1748681;82;21014;-79
2021/10/28 16:31:48;;;;;;;114.42;53.78;;;;;;;11.06;65.78;101061.69;1748766;82;21038;-79
2021/10/28 16:34:14;;;;;;;152.65;66.50;;;;;;;11.05;65.95;101061.33;1748621;82;21447;-79
2021/10/28 16:36:41;;;;;;;134.45;58.50;;;;;;;11.00;66.09;101059.65;1717220;82;21030;-79
2021/10/28 16:39:10;;;;;;;99.10;43.13;;;;;;;10.95;66.25;101055.27;1747445;80;21101;-78
2021/10/28 16:41:36;;;;;;;100.92;45.85;;;;;;;11.03;66.43;101053.99;1748492;80;20987;-78
2021/10/28 16:44:04;;;;;;;99.42;58.87;;;;;;;11.10;66.52;101052.86;1748635;82;21199;-78
2021/10/28 16:46:30;;;;;;;102.72;53.00;;;;;;;11.10;66.64;101048.37;1748706;82;21330;-79
2021/10/28 16:48:56;;;;;;;118.93;58.13;;;;;;;11.18;66.78;101052.43;1751070;80;20999;-79
2021/10/28 16:51:23;;;;;;;112.75;55.10;;;;;;;11.27;66.85;101050.13;1779521;80;21011;-79
2021/10/28 16:53:50;;;;;;;88.70;44.77;;;;;;;11.34;66.90;101047.17;1751938;80;21093;-79
2021/10/28 16:56:16;;;;;;;98.78;48.28;;;;;;;11.40;66.93;101049.20;1748706;82;21466;-78
2021/10/28 16:58:42;;;;;;;115.47;53.70;;;;;;;11.44;66.97;101041.70;1748619;81;21030;-78
2021/10/28 17:01:09;;;;;;;196.98;99.07;;;;;;;11.45;67.00;101037.55;1748744;82;21030;-79
2021/10/28 17:03:36;;;;;;;486.90;208.57;;;;;;;11.50;67.04;101040.56;1748350;82;21003;-78
2021/10/28 17:06:02;;;;;;;360.27;159.32;;;;;;;11.53;67.05;101039.42;1748618;81;21006;-78
2021/10/28 17:08:29;;;;;;;619.02;307.55;;;;;;;11.60;67.06;101037.78;1748617;82;21177;-78
2021/10/28 17:10:56;;;;;;;385.68;150.93;;;;;;;11.65;67.03;101039.95;1748543;82;21033;-78
2021/10/28 17:13:22;;;;;;;214.38;79.37;;;;;;;11.69;67.01;101034.63;1748767;81;20979;-78
2021/10/28 17:15:49;;;;;;;262.30;102.97;;;;;;;11.70;67.01;101034.98;1748846;81;21010;-78
2021/10/28 17:18:15;;;;;;;352.75;132.35;;;;;;;11.74;67.00;101029.19;1748648;82;21509;-79
2021/10/28 17:20:41;;;;;;;384.43;147.65;;;;;;;11.77;67.00;101029.36;1748634;81;21780;-78
2021/10/28 17:23:14;;;;;;;231.65;90.15;;;;;;;11.79;66.97;101030.86;1748702;82;21026;-78
2021/10/28 17:25:40;;;;;;;212.35;82.10;;;;;;;11.80;66.97;101034.38;1747077;81;21444;-78
2021/10/28 17:28:07;;;;;;;252.00;107.12;;;;;;;11.77;66.96;101032.87;1748674;82;21078;-78
2021/10/28 17:30:33;;;;;;;223.35;97.15;;;;;;;11.75;66.97;101032.70;1748793;82;21030;-79
2021/10/28 17:32:59;;;;;;;112.00;50.33;;;;;;;11.72;66.98;101028.50;1748297;81;21138;-78
2021/10/28 17:35:25;;;;;;;136.95;59.05;;;;;;;11.73;67.02;101029.34;1748667;82;21497;-78
2021/10/28 17:37:52;;;;;;;163.85;73.90;;;;;;;11.74;67.03;101025.67;1748777;81;21018;-78
2021/10/28 17:40:18;;;;;;;91.15;45.73;;;;;;;11.73;67.06;101028.00;1717177;82;21029;-78
2021/10/28 17:42:44;;;;;;;78.92;39.48;;;;;;;11.71;67.08;101027.34;1748647;82;21026;-78
2021/10/28 17:45:12;;;;;;;69.55;41.55;;;;;;;11.69;67.09;101027.95;1748563;82;21123;-78
2021/10/28 17:47:41;;;;;;;88.60;45.12;;;;;;;11.65;67.14;101026.59;1748538;82;21495;-78
2021/10/28 17:50:08;;;;;;;70.72;35.75;;;;;;;11.64;67.16;101024.95;1716463;82;21054;-79
2021/10/28 17:52:34;;;;;;;79.10;39.55;;;;;;;11.60;67.22;101024.92;1748757;82;21029;-78
2021/10/28 17:55:02;;;;;;;70.00;36.13;;;;;;;11.56;67.25;101016.89;1748715;81;20994;-78
2021/10/28 17:57:29;;;;;;;80.97;43.08;;;;;;;11.49;67.29;101020.21;1748796;82;21839;-78
2021/10/28 17:59:55;;;;;;;60.90;34.13;;;;;;;11.43;67.33;101018.16;1748300;82;21014;-78
2021/10/28 18:02:21;;;;;;;45.45;28.47;;;;;;;11.38;67.41;101019.16;1748778;80;21502;-78
2021/10/28 18:04:47;;;;;;;43.65;26.80;;;;;;;11.37;67.49;101023.31;1754475;80;20990;-78
2021/10/28 18:07:13;;;;;;;39.78;24.65;;;;;;;11.34;67.52;101018.29;1767921;80;21089;-78
2021/10/28 18:09:43;;;;;;;47.88;31.00;;;;;;;11.29;67.58;101019.28;1748640;81;21155;-78
2021/10/28 18:12:08;;;;;;;48.50;29.05;;;;;;;11.23;67.62;101016.73;1760853;80;21448;-78
2021/10/28 18:14:35;;;;;;;49.73;29.18;;;;;;;11.17;67.68;101017.38;1779454;80;21033;-78
2021/10/28 18:17:01;;;;;;;119.20;66.45;;;;;;;11.14;67.76;101012.36;1779179;80;21451;-79
2021/10/28 18:19:27;;;;;;;113.72;58.45;;;;;;;11.12;67.83;101009.52;1779642;80;20967;-78
2021/10/28 18:21:55;;;;;;;109.63;57.08;;;;;;;11.07;67.86;101012.66;1779581;80;21136;-78
2021/10/28 18:24:22;;;;;;;108.95;58.35;;;;;;;11.02;67.93;101014.45;1765781;80;21033;-78
2021/10/28 18:26:48;;;;;;;57.58;35.43;;;;;;;10.98;67.98;101009.58;1748598;82;20998;-78
2021/10/28 18:29:14;;;;;;;48.80;29.32;;;;;;;10.93;68.04;101001.22;1748739;82;20998;-78
2021/10/28 18:31:41;;;;;;;39.53;24.60;;;;;;;10.90;68.13;101001.55;1754907;80;21562;-78
2021/10/28 18:34:08;;;;;;;49.90;31.27;;;;;;;10.85;68.21;100994.49;1730879;82;21165;-78
2021/10/28 18:36:36;;;;;;;40.12;25.92;;;;;;;10.80;68.27;100988.28;1762262;79;21010;-78
2021/10/28 18:39:04;;;;;;;46.60;25.90;;;;;;;10.77;68.34;100985.09;1770931;80;21042;-78
2021/10/28 18:41:32;;;;;;;42.50;25.95;;;;;;;10.71;68.44;100985.73;1740233;81;21623;-78
2021/10/28 18:43:58;;;;;;;42.53;26.40;;;;;;;10.66;68.51;100981.38;1725145;83;21082;-80
2021/10/28 18:46:24;;;;;;;37.40;23.77;;;;;;;10.61;68.59;100986.33;1724107;83;21030;-78
2021/10/28 18:48:54;;;;;;;43.58;24.35;;;;;;;10.55;68.66;100984.28;1722416;81;21094;-79
2021/10/28 18:51:21;;;;;;;37.95;25.25;;;;;;;10.50;68.75;100972.25;1719568;82;21040;-78
2021/10/28 18:53:49;;;;;;;43.38;25.60;;;;;;;10.47;68.84;100971.23;1742958;81;21071;-80
2021/10/28 18:56:17;;;;;;;43.02;28.62;;;;;;;10.42;68.93;100967.34;1729488;81;21075;-80
2021/10/28 18:58:43;;;;;;;40.73;25.72;;;;;;;10.39;69.02;100968.50;1755182;81;21353;-80
2021/10/28 19:01:11;;;;;;;42.17;26.23;;;;;;;10.36;69.08;100967.48;1724962;81;21064;-80
2021/10/28 19:03:43;;;;;;;44.70;27.77;;;;;;;10.33;69.19;100962.45;1732202;82;21517;-80
2021/10/28 19:06:07;;;;;;;43.65;28.10;;;;;;;10.35;69.27;100959.62;1722141;82;21053;-80
2021/10/28 19:08:36;;;;;;;45.12;26.30;;;;;;;10.31;69.37;100958.28;1724400;83;21055;-79
2021/10/28 19:11:01;;;;;;;41.65;27.42;;;;;;;10.27;69.47;100948.42;1725811;81;21292;-79
2021/10/28 19:13:27;;;;;;;39.42;26.02;;;;;;;10.25;69.56;100942.39;1723770;81;21534;-79
2021/10/28 19:15:55;;;;;;;37.03;23.05;;;;;;;10.23;69.62;100944.88;1727762;82;21113;-79
2021/10/28 19:18:21;;;;;;;42.93;25.88;;;;;;;10.21;69.69;100941.02;1698773;83;21098;-79
2021/10/28 19:20:47;;;;;;;40.20;27.85;;;;;;;10.25;69.78;100946.39;1703570;83;21514;-79
2021/10/28 19:23:14;;;;;;;40.63;27.55;;;;;;;10.27;69.87;100943.09;1707816;83;21050;-79
2021/10/28 19:25:40;;;;;;;52.93;29.27;;;;;;;10.29;69.94;100943.76;1707346;83;21475;-79
2021/10/28 19:28:08;;;;;;;46.23;29.20;;;;;;;10.30;70.00;100937.45;1727616;82;21596;-79
2021/10/28 19:33:08;;;;;;;58.83;28.98;;;;;;;10.36;70.11;100932.81;1739203;81;21053;-78
2021/10/28 19:35:31;;;;;;;44.55;27.22;;;;;;;10.34;70.15;100928.15;1726872;83;21519;-78
2021/10/28 19:38:04;;;;;;;39.78;27.35;;;;;;;10.41;70.24;100928.36;1727877;83;21030;-79
2021/10/28 19:40:34;;;;;;;63.73;34.92;;;;;;;10.42;70.28;100928.67;1719412;82;21090;-78
2021/10/28 19:48:16;;;;;;;46.42;26.93;;;;;;;10.29;70.37;100933.09;1719939;83;21082;-79
2021/10/28 19:50:43;;;;;;;;;;;;;;;10.22;70.42;100930.70;1726096;82;21633;-79
2021/10/28 19:53:09;;;;;;;48.33;27.15;;;;;;;10.14;70.44;100931.97;1720579;83;20515;-79